Time;durP1;ratioP1;P1;durP2;ratioP2;P2;SDS_P1;SDS_P2;PMS_P1;PMS_P2;Temp;Humidity;BMP_temperature;BMP_pressure;BME280_temperature;BME280_humidity;BME280_pressure;Samples;Min_cycle;Max_cycle;Signal;HPM_P1;HPM_P2
2024/02/28 00:01:51;;;;;;;113.30;56.80;;;;;;;7.84;100.00;100262.91;182716;1235;46088;-86
2024/02/28 00:05:52;;;;;;;115.60;57.30;;;;;;;7.89;100.00;100258.40;182188;1234;46086;-86
2024/02/28 00:09:57;;;;;;;111.60;54.70;;;;;;;7.89;100.00;100263.30;182216;1234;45983;-87
2024/02/28 00:14:02;;;;;;;104.00;51.20;;;;;;;7.87;100.00;100264.50;182382;1235;46053;-86
2024/02/28 00:18:04;;;;;;;99.40;52.10;;;;;;;7.92;100.00;100263.48;182113;1235;58075;-86
2024/02/28 00:22:06;;;;;;;100.30;51.40;;;;;;;7.88;100.00;100266.07;182386;1236;46078;-87
2024/02/28 00:26:08;;;;;;;113.40;48.50;;;;;;;7.87;100.00;100265.22;182126;1238;46012;-84
2024/02/28 00:30:10;;;;;;;95.80;44.80;;;;;;;7.84;100.00;100268.59;182126;1238;45983;-86
2024/02/28 00:34:12;;;;;;;100.50;47.60;;;;;;;7.81;100.00;100270.54;182659;1235;45890;-85
2024/02/28 00:38:14;;;;;;;101.00;49.30;;;;;;;7.87;100.00;100277.23;182622;1238;59522;-87
2024/02/28 00:42:16;;;;;;;93.50;47.30;;;;;;;7.96;100.00;100281.20;182554;1238;46031;-86
2024/02/28 00:46:18;;;;;;;93.00;46.10;;;;;;;7.97;100.00;100281.14;182582;1238;45873;-83
2024/02/28 00:50:20;;;;;;;102.10;52.00;;;;;;;7.90;100.00;100281.78;182290;1238;46120;-85
2024/02/28 00:54:23;;;;;;;86.80;45.40;;;;;;;7.95;100.00;100280.02;182156;1238;46060;-86
2024/02/28 00:58:27;;;;;;;97.70;44.60;;;;;;;7.97;100.00;100284.14;182150;1235;58483;-85
2024/02/28 01:02:29;;;;;;;84.00;47.40;;;;;;;8.02;100.00;100283.24;182864;1238;44361;-85
2024/02/28 01:06:31;;;;;;;86.70;46.90;;;;;;;8.05;100.00;100284.42;182814;1239;46067;-86
2024/02/28 01:10:34;;;;;;;94.20;45.90;;;;;;;8.07;100.00;100284.27;182433;1238;45845;-85
2024/02/28 01:14:35;;;;;;;84.70;43.80;;;;;;;8.10;100.00;100283.92;182689;1235;46083;-84
2024/02/28 01:18:37;;;;;;;91.50;46.10;;;;;;;8.07;100.00;100281.30;182472;1235;57626;-85
2024/02/28 01:22:39;;;;;;;75.90;43.20;;;;;;;8.02;100.00;100279.68;182375;1235;46876;-85
2024/02/28 01:26:41;;;;;;;88.80;42.80;;;;;;;8.05;100.00;100275.39;182005;1235;46067;-83
2024/02/28 01:30:43;;;;;;;70.20;40.00;;;;;;;8.08;100.00;100267.41;182162;1239;46040;-85
2024/02/28 01:34:46;;;;;;;76.10;41.20;;;;;;;8.09;100.00;100268.45;182229;1235;46080;-85
2024/02/28 01:38:47;;;;;;;77.60;40.70;;;;;;;8.04;100.00;100267.52;182377;1238;58278;-84
2024/02/28 01:42:49;;;;;;;76.10;37.50;;;;;;;8.01;100.00;100264.61;182626;1239;46098;-85
2024/02/28 01:46:54;;;;;;;62.70;37.50;;;;;;;7.92;100.00;100261.84;182015;1235;46079;-85
2024/02/28 01:50:57;;;;;;;56.90;36.60;;;;;;;7.91;100.00;100258.58;182380;1236;45909;-85
2024/02/28 01:54:59;;;;;;;66.10;37.00;;;;;;;7.90;100.00;100258.09;182521;1235;46124;-84
2024/02/28 01:59:02;;;;;;;57.50;32.60;;;;;;;7.82;100.00;100258.85;182396;1236;59419;-86
2024/02/28 02:03:04;;;;;;;73.10;36.40;;;;;;;7.81;100.00;100254.82;182169;1238;46179;-85
2024/02/28 02:07:07;;;;;;;65.20;33.80;;;;;;;7.88;100.00;100254.36;182511;1235;46087;-85
2024/02/28 02:11:09;;;;;;;60.90;34.00;;;;;;;7.89;100.00;100255.38;182784;1235;46097;-84
2024/02/28 02:15:11;;;;;;;58.80;32.60;;;;;;;7.94;100.00;100255.38;182115;1239;46029;-85
2024/02/28 02:19:13;;;;;;;48.70;30.30;;;;;;;7.94;100.00;100257.30;182896;1235;58180;-85
2024/02/28 02:23:15;;;;;;;56.80;34.30;;;;;;;7.92;100.00;100258.17;182180;1239;46082;-85
2024/02/28 02:27:17;;;;;;;56.20;35.60;;;;;;;7.96;100.00;100260.17;182310;1235;46002;-84
2024/02/28 02:31:19;;;;;;;75.00;38.70;;;;;;;7.99;100.00;100257.48;182386;1238;45983;-86
2024/02/28 02:35:21;;;;;;;73.10;38.50;;;;;;;7.99;100.00;100260.27;182381;1239;45973;-85
2024/02/28 02:39:23;;;;;;;56.70;35.70;;;;;;;8.06;100.00;100263.52;182556;1235;58274;-85
2024/02/28 02:43:25;;;;;;;64.70;35.70;;;;;;;8.14;100.00;100258.02;182747;1239;46212;-84
2024/02/28 02:47:27;;;;;;;70.70;37.00;;;;;;;8.22;100.00;100260.63;182454;1234;46177;-85
2024/02/28 02:51:29;;;;;;;60.80;34.90;;;;;;;8.30;100.00;100257.55;182410;1238;46101;-85
2024/02/28 02:55:31;;;;;;;49.00;30.90;;;;;;;8.36;100.00;100256.09;182474;1238;46157;-82
2024/02/28 02:59:33;;;;;;;60.90;34.40;;;;;;;8.33;100.00;100255.95;182319;1235;58123;-84
2024/02/28 03:03:37;;;;;;;60.30;34.10;;;;;;;8.29;100.00;100255.32;182788;1236;46442;-85
2024/02/28 03:07:39;;;;;;;49.50;31.00;;;;;;;8.23;100.00;100256.16;182564;1235;46074;-85
2024/02/28 03:11:41;;;;;;;58.40;33.30;;;;;;;8.18;100.00;100257.23;183094;1237;44021;-85
2024/02/28 03:15:43;;;;;;;55.70;28.70;;;;;;;8.11;100.00;100257.00;183416;1235;45925;-86
2024/02/28 03:19:45;;;;;;;61.40;32.30;;;;;;;8.09;100.00;100256.59;182549;1239;58219;-85
2024/02/28 03:23:47;;;;;;;65.60;34.50;;;;;;;8.17;100.00;100261.14;183090;1235;46008;-84
2024/02/28 03:27:49;;;;;;;55.30;32.40;;;;;;;8.25;100.00;100266.56;182269;1235;46010;-85
2024/02/28 03:31:51;;;;;;;54.00;33.50;;;;;;;8.36;100.00;100273.77;182197;1235;45982;-83
2024/02/28 03:35:53;;;;;;;57.10;33.90;;;;;;;8.42;100.00;100276.65;182356;1238;45980;-85
2024/02/28 03:39:54;;;;;;;62.60;30.80;;;;;;;8.44;100.00;100278.30;182750;1235;58037;-85
2024/02/28 03:43:56;;;;;;;51.40;29.70;;;;;;;8.50;100.00;100286.03;182936;1235;45976;-85
2024/02/28 03:47:59;;;;;;;50.10;31.90;;;;;;;8.57;100.00;100290.28;183040;1235;46008;-85
2024/02/28 03:52:01;;;;;;;45.70;28.50;;;;;;;8.62;100.00;100295.58;183020;1237;45857;-86
2024/02/28 03:56:04;;;;;;;48.70;28.00;;;;;;;8.65;100.00;100302.41;183177;1236;46131;-86
2024/02/28 04:00:06;;;;;;;43.60;26.10;;;;;;;8.66;100.00;100304.85;183565;1236;57718;-86
2024/02/28 04:04:08;;;;;;;45.80;25.80;;;;;;;8.66;100.00;100302.52;182830;1236;46004;-86
2024/02/28 04:08:10;;;;;;;41.90;25.70;;;;;;;8.66;100.00;100306.39;182370;1234;46114;-85
2024/02/28 04:12:12;;;;;;;39.50;26.60;;;;;;;8.66;100.00;100309.06;182416;1238;46225;-84
2024/02/28 04:16:14;;;;;;;38.30;23.80;;;;;;;8.68;100.00;100313.73;182349;1235;46064;-85
2024/02/28 04:20:16;;;;;;;31.30;21.40;;;;;;;8.57;100.00;100315.90;184248;1236;59240;-86
2024/02/28 04:24:18;;;;;;;38.50;22.50;;;;;;;8.41;100.00;100319.48;183467;1236;45989;-87
2024/02/28 04:28:20;;;;;;;38.20;21.50;;;;;;;8.24;100.00;100317.71;184992;1235;46056;-85
2024/02/28 04:32:22;;;;;;;40.80;25.10;;;;;;;8.14;100.00;100326.14;184129;1234;44167;-86
2024/02/28 04:36:23;;;;;;;46.20;22.50;;;;;;;8.12;100.00;100328.77;184969;1237;46082;-88
2024/02/28 04:40:25;;;;;;;37.20;22.70;;;;;;;8.03;100.00;100327.15;182679;1235;57920;-87
2024/02/28 04:44:27;;;;;;;27.90;20.60;;;;;;;7.91;100.00;100329.88;183792;1239;46205;-87
2024/02/28 04:48:29;;;;;;;39.60;21.00;;;;;;;7.82;100.00;100327.70;183578;1239;44109;-84
2024/02/28 04:52:34;;;;;;;44.20;26.20;;;;;;;7.77;100.00;100330.02;182773;1235;45963;-87
2024/02/28 04:56:41;;;;;;;40.90;21.10;;;;;;;7.70;100.00;100332.23;182941;1238;46052;-85
2024/02/28 05:00:42;;;;;;;;;;;;;;;7.61;100.00;100334.97;184005;1236;58792;-84
2024/02/28 05:04:44;;;;;;;61.60;24.70;;;;;;;7.59;100.00;100341.48;183495;1235;44785;-85
2024/02/28 05:08:46;;;;;;;49.30;27.50;;;;;;;7.56;100.00;100345.33;182545;1239;45955;-86
2024/02/28 05:12:49;;;;;;;43.20;24.90;;;;;;;7.55;100.00;100348.92;182586;1235;44865;-86
2024/02/28 05:16:51;;;;;;;44.30;26.50;;;;;;;7.50;100.00;100355.26;182997;1235;46137;-86
2024/02/28 05:20:53;;;;;;;36.70;23.80;;;;;;;7.44;100.00;100362.95;182434;1238;59350;-86
2024/02/28 05:24:54;;;;;;;51.60;30.10;;;;;;;7.42;100.00;100363.76;182634;1235;46108;-86
2024/02/28 05:28:57;;;;;;;42.00;25.30;;;;;;;7.42;100.00;100367.85;182379;1234;44162;-85
2024/02/28 05:32:59;;;;;;;40.10;24.50;;;;;;;7.39;100.00;100362.52;182692;1235;45992;-84
2024/02/28 05:37:01;;;;;;;42.20;26.90;;;;;;;7.39;100.00;100368.88;183308;1235;44065;-84
2024/02/28 05:41:03;;;;;;;40.10;21.50;;;;;;;7.38;100.00;100370.89;182861;1238;59159;-81
2024/02/28 05:45:06;;;;;;;41.80;23.60;;;;;;;7.37;100.00;100370.97;182702;1239;46112;-84
2024/02/28 05:49:08;;;;;;;36.50;21.50;;;;;;;7.33;100.00;100378.13;182525;1237;46030;-85
2024/02/28 05:53:10;;;;;;;39.30;23.10;;;;;;;7.37;100.00;100378.61;183390;1237;44087;-85
2024/02/28 05:57:12;;;;;;;41.90;19.70;;;;;;;7.34;100.00;100380.70;182839;1235;44665;-85
2024/02/28 06:01:18;;;;;;;38.10;22.00;;;;;;;7.29;100.00;100385.07;182754;1239;58563;-85
2024/02/28 06:05:20;;;;;;;34.60;20.20;;;;;;;7.28;100.00;100388.86;184957;1235;46011;-83
2024/02/28 06:09:22;;;;;;;27.70;17.40;;;;;;;7.28;100.00;100393.10;184462;1235;45943;-86
2024/02/28 06:13:24;;;;;;;26.30;14.90;;;;;;;7.26;100.00;100399.06;184306;1235;44317;-85
2024/02/28 06:17:26;;;;;;;23.60;14.80;;;;;;;7.21;100.00;100402.36;184356;1235;45896;-85
2024/02/28 06:21:29;;;;;;;22.80;16.10;;;;;;;7.20;100.00;100405.79;182849;1234;57797;-84
2024/02/28 06:25:33;;;;;;;23.90;16.70;;;;;;;7.24;100.00;100413.64;183923;1235;46021;-84
2024/02/28 06:29:36;;;;;;;27.30;14.90;;;;;;;7.22;100.00;100416.23;182577;1239;46198;-86
2024/02/28 06:33:38;;;;;;;26.30;17.20;;;;;;;7.13;100.00;100423.70;182905;1235;46110;-84
2024/02/28 06:37:40;;;;;;;20.40;15.30;;;;;;;7.15;100.00;100431.70;182810;1236;46139;-84
2024/02/28 06:41:42;;;;;;;31.60;16.60;;;;;;;7.13;100.00;100434.64;182414;1235;58521;-83
2024/02/28 06:45:43;;;;;;;29.80;17.60;;;;;;;7.07;100.00;100437.34;182953;1234;45947;-85
2024/02/28 06:49:45;;;;;;;33.50;20.90;;;;;;;7.02;100.00;100444.85;183082;1235;46050;-85
2024/02/28 06:53:47;;;;;;;33.30;22.20;;;;;;;7.06;100.00;100450.27;182499;1236;46089;-86
2024/02/28 06:57:49;;;;;;;43.40;22.70;;;;;;;7.07;100.00;100453.91;182566;1239;45940;-85
2024/02/28 07:01:51;;;;;;;37.00;20.90;;;;;;;7.05;100.00;100454.58;182678;1235;57836;-84
2024/02/28 07:05:54;;;;;;;34.70;21.50;;;;;;;7.08;100.00;100453.86;182531;1235;46195;-85
2024/02/28 07:09:57;;;;;;;47.50;23.90;;;;;;;7.02;100.00;100463.06;182387;1239;46061;-84
2024/02/28 07:14:02;;;;;;;38.80;19.20;;;;;;;6.96;100.00;100467.42;183048;1236;45972;-82
2024/02/28 07:18:04;;;;;;;30.80;20.20;;;;;;;6.89;100.00;100471.29;182530;1235;45879;-84
2024/02/28 07:22:05;;;;;;;24.00;13.80;;;;;;;6.90;100.00;100470.83;182613;1235;58546;-84
2024/02/28 07:26:08;;;;;;;28.60;15.80;;;;;;;6.80;100.00;100478.51;183477;1239;44081;-86
2024/02/28 07:30:21;;;;;;;32.30;16.10;;;;;;;6.80;100.00;100482.59;182869;1235;46114;-85
2024/02/28 07:34:23;;;;;;;36.10;17.90;;;;;;;6.76;100.00;100490.40;183302;1240;46082;-85
2024/02/28 07:38:27;;;;;;;32.20;21.80;;;;;;;6.77;100.00;100493.87;182896;1235;43965;-86
2024/02/28 07:42:29;;;;;;;37.70;19.00;;;;;;;6.84;100.00;100499.04;182586;1238;58101;-85
2024/02/28 07:46:31;;;;;;;38.10;22.60;;;;;;;6.82;100.00;100498.85;183326;1235;46176;-85
2024/02/28 07:50:33;;;;;;;34.80;21.30;;;;;;;6.78;100.00;100503.52;182346;1238;46215;-85
2024/02/28 07:54:36;;;;;;;31.60;19.90;;;;;;;6.76;100.00;100499.55;182536;1235;46018;-85
2024/02/28 07:58:38;;;;;;;29.50;19.20;;;;;;;6.75;100.00;100501.20;182507;1235;46099;-85
2024/02/28 08:02:40;;;;;;;31.40;21.00;;;;;;;6.80;100.00;100502.15;182838;1235;57086;-84
2024/02/28 08:06:42;;;;;;;26.90;17.70;;;;;;;6.79;100.00;100502.54;182351;1238;45923;-83
2024/02/28 08:10:46;;;;;;;21.70;16.80;;;;;;;6.79;100.00;100506.98;182690;1235;46793;-86
2024/02/28 08:14:48;;;;;;;19.00;14.50;;;;;;;6.80;100.00;100507.80;182317;1235;45997;-83
2024/02/28 08:18:50;;;;;;;19.90;14.30;;;;;;;6.77;100.00;100512.55;183445;1235;45147;-86
2024/02/28 08:22:52;;;;;;;15.70;12.00;;;;;;;6.87;100.00;100514.91;182148;1238;57592;-84
2024/02/28 08:26:55;;;;;;;26.20;17.20;;;;;;;6.85;100.00;100518.04;183263;1238;46081;-83
2024/02/28 08:30:58;;;;;;;25.60;17.10;;;;;;;6.92;100.00;100524.15;182664;1235;46091;-86
2024/02/28 08:35:00;;;;;;;27.50;20.50;;;;;;;6.93;100.00;100522.84;182341;1235;46097;-86
2024/02/28 08:39:04;;;;;;;26.50;18.70;;;;;;;6.99;100.00;100528.14;182364;1238;46061;-83
2024/02/28 08:43:06;;;;;;;25.30;14.40;;;;;;;7.07;100.00;100530.64;182972;1235;57975;-85
2024/02/28 08:47:09;;;;;;;21.50;16.80;;;;;;;6.94;100.00;100533.38;182910;1238;46054;-84
2024/02/28 08:51:11;;;;;;;22.40;15.10;;;;;;;6.95;100.00;100530.27;183465;1235;45976;-85
2024/02/28 08:55:18;;;;;;;24.10;16.40;;;;;;;6.94;100.00;100538.43;182986;1235;46055;-84
2024/02/28 08:59:20;;;;;;;21.90;16.00;;;;;;;6.88;100.00;100544.81;182592;1238;45550;-86
2024/02/28 09:03:22;;;;;;;52.90;30.70;;;;;;;6.84;100.00;100546.66;182689;1235;58007;-85
2024/02/28 09:07:24;;;;;;;43.50;26.60;;;;;;;6.83;100.00;100557.33;183028;1235;45895;-85
2024/02/28 09:11:26;;;;;;;40.60;29.50;;;;;;;6.84;100.00;100562.34;182975;1238;46169;-84
2024/02/28 09:15:28;;;;;;;33.00;26.10;;;;;;;6.91;100.00;100564.94;182418;1238;46048;-83
2024/02/28 09:19:31;;;;;;;23.20;16.50;;;;;;;6.94;100.00;100565.58;182845;1235;46075;-84
2024/02/28 09:23:33;;;;;;;34.10;24.30;;;;;;;6.94;100.00;100566.84;182577;1238;59367;-84
2024/02/28 09:27:36;;;;;;;22.80;15.60;;;;;;;6.89;100.00;100570.54;182463;1235;45948;-87
2024/02/28 09:31:38;;;;;;;31.60;21.30;;;;;;;6.82;100.00;100571.98;182956;1235;46084;-86
2024/02/28 09:35:41;;;;;;;28.50;19.60;;;;;;;6.72;100.00;100580.36;182220;1235;46005;-83
2024/02/28 09:39:43;;;;;;;30.40;16.90;;;;;;;6.68;100.00;100583.23;182596;1235;45961;-85
2024/02/28 09:43:47;;;;;;;19.60;13.70;;;;;;;6.72;100.00;100588.33;183141;1235;58139;-86
2024/02/28 09:47:49;;;;;;;18.80;12.70;;;;;;;6.73;100.00;100596.52;182603;1238;46044;-86
2024/02/28 09:51:51;;;;;;;21.90;15.90;;;;;;;6.77;100.00;100604.39;182383;1238;44771;-85
2024/02/28 09:55:53;;;;;;;23.60;16.80;;;;;;;6.75;100.00;100603.80;182186;1235;46078;-85
2024/02/28 10:00:00;;;;;;;22.30;15.50;;;;;;;6.77;100.00;100608.77;182461;1236;45988;-85
2024/02/28 10:04:02;;;;;;;31.90;21.20;;;;;;;6.76;100.00;100609.08;183300;1235;59129;-84
2024/02/28 10:08:06;;;;;;;38.40;27.90;;;;;;;6.79;100.00;100609.22;183056;1235;44528;-83
2024/02/28 10:12:08;;;;;;;49.00;35.40;;;;;;;6.81;100.00;100608.92;184446;1234;45995;-86
2024/02/28 10:16:10;;;;;;;31.40;21.60;;;;;;;6.85;100.00;100615.51;183381;1235;45915;-85
2024/02/28 10:20:12;;;;;;;38.50;25.20;;;;;;;6.90;100.00;100623.00;183057;1235;45964;-86
2024/02/28 10:24:14;;;;;;;31.20;21.40;;;;;;;6.88;100.00;100626.43;182987;1238;59310;-82
2024/02/28 10:28:17;;;;;;;31.30;22.40;;;;;;;6.83;100.00;100630.80;183196;1235;46176;-84
2024/02/28 10:32:19;;;;;;;32.00;21.40;;;;;;;6.78;100.00;100632.56;183482;1235;46138;-85
2024/02/28 10:36:21;;;;;;;28.80;19.80;;;;;;;6.84;100.00;100634.11;183338;1234;46071;-85
2024/02/28 10:40:23;;;;;;;39.30;28.30;;;;;;;6.83;100.00;100639.80;182858;1234;44418;-85
2024/02/28 10:44:27;;;;;;;41.10;26.90;;;;;;;6.75;100.00;100649.63;182157;1238;59405;-85
2024/02/28 10:48:28;;;;;;;43.40;27.00;;;;;;;6.77;100.00;100654.30;183389;1237;46003;-85
2024/02/28 10:52:34;;;;;;;39.90;25.30;;;;;;;6.77;100.00;100656.58;182698;1234;46025;-84
2024/02/28 10:56:36;;;;;;;25.50;19.70;;;;;;;6.73;100.00;100658.58;182255;1235;46066;-85
2024/02/28 11:00:46;;;;;;;23.80;18.00;;;;;;;6.69;100.00;100655.41;183079;1235;46050;-86
2024/02/28 11:04:52;;;;;;;30.40;16.20;;;;;;;6.67;100.00;100649.39;182547;1235;58095;-85
2024/02/28 11:08:56;;;;;;;33.00;21.20;;;;;;;6.66;100.00;100650.31;183595;1234;46004;-84
2024/02/28 11:12:58;;;;;;;27.90;19.60;;;;;;;6.71;100.00;100647.21;182571;1235;46080;-85
2024/02/28 11:17:04;;;;;;;26.20;18.60;;;;;;;6.63;100.00;100650.64;182751;1235;46100;-83
2024/02/28 11:21:16;;;;;;;34.00;20.90;;;;;;;6.61;100.00;100654.11;182025;1235;45965;-86
2024/02/28 11:25:18;;;;;;;37.60;21.40;;;;;;;6.62;100.00;100656.91;182662;1238;57939;-84
2024/02/28 11:29:30;;;;;;;33.90;23.60;;;;;;;6.60;100.00;100652.63;183051;1235;276394;-84
2024/02/28 11:33:35;;;;;;;35.60;22.50;;;;;;;6.62;100.00;100653.55;183321;1236;45967;-82
2024/02/28 11:37:41;;;;;;;40.50;26.90;;;;;;;6.61;100.00;100654.16;183324;1236;46087;-85
2024/02/28 11:41:47;;;;;;;43.10;25.80;;;;;;;6.62;100.00;100660.09;182461;1235;46086;-84
2024/02/28 11:45:49;;;;;;;37.70;19.70;;;;;;;6.61;100.00;100668.05;182683;1235;59388;-85
2024/02/28 11:49:51;;;;;;;30.70;21.40;;;;;;;6.64;100.00;100672.64;182076;1234;46047;-85
2024/02/28 11:53:53;;;;;;;31.90;21.80;;;;;;;6.66;100.00;100679.23;182663;1237;46009;-84
2024/02/28 11:57:55;;;;;;;26.00;14.80;;;;;;;6.62;100.00;100683.90;182503;1235;46063;-87
2024/02/28 12:01:57;;;;;;;28.60;17.20;;;;;;;6.54;100.00;100683.10;182915;1235;46205;-85
2024/02/28 12:05:59;;;;;;;30.90;18.60;;;;;;;6.55;100.00;100688.71;182385;1235;58053;-86
2024/02/28 12:10:01;;;;;;;27.70;14.90;;;;;;;6.50;100.00;100693.89;182305;1235;46059;-86
2024/02/28 12:14:09;;;;;;;24.40;17.80;;;;;;;6.49;100.00;100698.21;182796;1234;45976;-86
2024/02/28 12:18:11;;;;;;;32.90;21.00;;;;;;;6.44;100.00;100699.88;182371;1235;45939;-84
2024/02/28 12:22:13;;;;;;;40.00;25.40;;;;;;;6.47;100.00;100692.14;183098;1235;46105;-85
2024/02/28 12:26:17;;;;;;;40.70;26.20;;;;;;;6.47;100.00;100696.21;182020;1235;58643;-85
2024/02/28 12:30:19;;;;;;;38.20;26.50;;;;;;;6.51;100.00;100689.30;182661;1238;45947;-85
2024/02/28 12:34:21;;;;;;;41.50;22.60;;;;;;;6.56;100.00;100687.95;183493;1235;45983;-86
2024/02/28 12:38:23;;;;;;;33.00;21.00;;;;;;;6.60;100.00;100697.91;183279;1238;45990;-86
2024/02/28 12:42:24;;;;;;;32.20;21.50;;;;;;;6.56;100.00;100698.48;182673;1239;46114;-84
2024/02/28 12:46:26;;;;;;;51.80;33.40;;;;;;;6.54;100.00;100707.09;182420;1238;59403;-86
2024/02/28 12:50:28;;;;;;;51.10;34.20;;;;;;;6.56;100.00;100711.34;183309;1235;43967;-83
2024/02/28 12:54:30;;;;;;;41.80;29.80;;;;;;;6.60;100.00;100716.23;183329;1236;46114;-85
2024/02/28 12:58:32;;;;;;;45.30;30.50;;;;;;;6.63;100.00;100714.69;182211;1237;46016;-86
2024/02/28 13:02:33;;;;;;;38.80;26.00;;;;;;;6.75;100.00;100711.69;182680;1235;45963;-84
2024/02/28 13:06:35;;;;;;;39.70;23.80;;;;;;;6.74;100.00;100712.80;182346;1239;60010;-85
2024/02/28 13:10:40;;;;;;;29.70;20.50;;;;;;;6.69;100.00;100720.70;182646;1235;45976;-86
2024/02/28 13:14:42;;;;;;;28.80;17.30;;;;;;;6.59;100.00;100716.86;182708;1234;46088;-85
2024/02/28 13:18:45;;;;;;;25.40;15.00;;;;;;;6.54;100.00;100720.81;182242;1238;46192;-84
2024/02/28 13:22:47;;;;;;;36.00;24.70;;;;;;;6.54;100.00;100716.75;182754;1236;46106;-85
2024/02/28 13:26:48;;;;;;;46.20;32.10;;;;;;;6.61;100.00;100716.73;182730;1235;58152;-85
2024/02/28 13:30:50;;;;;;;40.70;27.40;;;;;;;6.67;100.00;100718.66;182496;1236;46088;-84
2024/02/28 13:34:52;;;;;;;28.40;19.70;;;;;;;6.65;100.00;100722.13;183083;1235;45922;-84
2024/02/28 13:38:54;;;;;;;29.50;22.30;;;;;;;6.63;100.00;100720.44;183143;1238;46002;-83
2024/02/28 13:42:56;;;;;;;28.20;20.40;;;;;;;6.62;100.00;100720.54;182880;1235;46066;-85
2024/02/28 13:46:57;;;;;;;27.60;22.30;;;;;;;6.64;100.00;100724.67;182344;1238;59678;-83
2024/02/28 13:50:59;;;;;;;32.00;23.60;;;;;;;6.56;100.00;100726.88;183155;1234;46025;-86
2024/02/28 13:55:02;;;;;;;31.60;18.40;;;;;;;6.44;100.00;100726.65;182616;1238;46187;-86
2024/02/28 13:59:04;;;;;;;30.30;18.60;;;;;;;6.39;100.00;100730.96;183560;1235;46012;-81
2024/02/28 14:03:06;;;;;;;29.80;19.40;;;;;;;6.42;100.00;100729.60;183690;1234;44780;-82
2024/02/28 14:07:09;;;;;;;35.20;22.80;;;;;;;6.45;100.00;100732.08;183282;1235;58156;-82
2024/02/28 14:11:11;;;;;;;34.50;19.90;;;;;;;6.47;100.00;100736.39;184253;1234;45879;-83
2024/02/28 14:15:13;;;;;;;29.90;18.10;;;;;;;6.36;100.00;100739.29;183135;1235;46084;-84
2024/02/28 14:19:14;;;;;;;39.00;23.20;;;;;;;6.37;100.00;100741.85;182719;1235;46006;-83
2024/02/28 14:23:17;;;;;;;38.70;23.50;;;;;;;6.31;100.00;100740.98;183486;1238;46179;-83
2024/02/28 14:27:19;;;;;;;43.50;26.60;;;;;;;6.37;100.00;100736.20;182761;1235;57356;-84
2024/02/28 14:31:23;;;;;;;47.20;29.50;;;;;;;6.39;100.00;100742.08;182770;1238;46056;-83
2024/02/28 14:35:26;;;;;;;38.20;24.10;;;;;;;6.42;100.00;100747.52;183690;1235;45969;-83
2024/02/28 14:39:27;;;;;;;36.10;19.90;;;;;;;6.45;100.00;100753.02;183094;1238;46069;-83
2024/02/28 14:43:29;;;;;;;42.30;25.80;;;;;;;6.50;100.00;100757.16;183098;1234;45910;-84
2024/02/28 14:47:32;;;;;;;50.30;33.10;;;;;;;6.48;100.00;100760.09;182961;1236;58677;-84
2024/02/28 14:51:34;;;;;;;45.90;24.80;;;;;;;6.45;100.00;100766.22;184023;1235;43953;-84
2024/02/28 14:55:39;;;;;;;39.20;26.00;;;;;;;6.42;100.00;100777.86;184043;1235;46090;-83
2024/02/28 14:59:41;;;;;;;36.10;22.40;;;;;;;6.40;100.00;100785.36;183167;1234;46117;-83
2024/02/28 15:03:43;;;;;;;39.40;24.90;;;;;;;6.33;100.00;100782.79;183269;1234;46047;-80
2024/02/28 15:07:44;;;;;;;35.40;18.70;;;;;;;6.28;100.00;100782.02;182744;1236;57479;-85
2024/02/28 15:11:50;;;;;;;43.60;23.50;;;;;;;6.23;100.00;100783.51;182672;1235;44461;-83
2024/02/28 15:15:51;;;;;;;29.40;20.20;;;;;;;6.24;100.00;100786.95;183600;1235;44198;-84
2024/02/28 15:19:54;;;;;;;34.90;19.60;;;;;;;6.18;100.00;100783.45;182482;1235;46103;-85
2024/02/28 15:23:55;;;;;;;39.00;22.00;;;;;;;6.17;100.00;100782.63;183512;1235;45970;-84
2024/02/28 15:27:57;;;;;;;48.10;25.10;;;;;;;6.28;100.00;100783.08;182848;1234;58124;-83
2024/02/28 15:31:59;;;;;;;37.00;27.50;;;;;;;6.34;100.00;100784.66;183978;1235;46055;-85
2024/02/28 15:36:03;;;;;;;30.40;20.00;;;;;;;6.33;100.00;100791.95;182430;1235;46074;-82
2024/02/28 15:40:06;;;;;;;31.30;19.40;;;;;;;6.21;100.00;100790.13;182841;1237;46088;-83
2024/02/28 15:44:08;;;;;;;32.00;21.20;;;;;;;6.21;100.00;100790.67;183515;1237;46072;-83
2024/02/28 15:48:09;;;;;;;35.20;21.00;;;;;;;6.24;100.00;100791.92;182784;1234;59579;-83
2024/02/28 15:52:11;;;;;;;24.50;15.60;;;;;;;6.26;100.00;100795.83;183770;1235;46546;-83
2024/02/28 15:56:13;;;;;;;28.60;17.00;;;;;;;6.28;100.00;100792.24;182983;1238;46066;-82
2024/02/28 16:00:15;;;;;;;30.70;18.10;;;;;;;6.24;100.00;100795.58;182680;1235;46010;-84
2024/02/28 16:04:17;;;;;;;32.40;19.40;;;;;;;6.25;100.00;100794.66;183834;1235;46006;-83
2024/02/28 16:08:19;;;;;;;28.30;17.70;;;;;;;6.19;100.00;100790.41;183943;1235;59269;-84
2024/02/28 16:12:23;;;;;;;32.90;18.90;;;;;;;6.15;100.00;100794.55;182968;1235;45964;-84
2024/02/28 16:16:26;;;;;;;27.30;18.10;;;;;;;6.17;100.00;100800.75;183101;1235;45999;-82
2024/02/28 16:20:28;;;;;;;28.50;17.50;;;;;;;6.19;100.00;100799.08;183347;1234;46038;-83
2024/02/28 16:24:30;;;;;;;25.30;20.50;;;;;;;6.17;100.00;100804.79;185759;1235;44059;-81
2024/02/28 16:28:32;;;;;;;30.30;17.10;;;;;;;6.26;100.00;100802.90;184623;1235;59849;-81
2024/02/28 16:32:34;;;;;;;29.60;20.40;;;;;;;6.27;100.00;100799.85;185225;1235;44047;-82
2024/02/28 16:36:36;;;;;;;30.50;20.30;;;;;;;6.22;100.00;100803.84;185056;1235;44427;-79
2024/02/28 16:40:38;;;;;;;34.90;20.80;;;;;;;6.21;100.00;100806.85;183634;1236;45931;-82
2024/02/28 16:44:41;;;;;;;33.20;18.10;;;;;;;6.15;100.00;100805.41;183959;1235;46093;-82
2024/02/28 16:48:43;;;;;;;38.90;22.30;;;;;;;6.15;100.00;100805.97;184687;1238;57890;-84
2024/02/28 16:52:44;;;;;;;41.50;23.80;;;;;;;6.20;100.00;100810.79;184690;1235;44031;-83
2024/02/28 16:56:46;;;;;;;36.30;21.90;;;;;;;6.19;100.00;100814.56;184113;1235;46135;-84
2024/02/28 17:00:49;;;;;;;47.40;26.50;;;;;;;6.15;100.00;100821.45;182843;1236;46596;-82
2024/02/28 17:04:53;;;;;;;40.90;24.50;;;;;;;6.14;100.00;100821.89;184459;1235;45852;-85
2024/02/28 17:08:54;;;;;;;37.20;24.10;;;;;;;6.21;100.00;100830.98;184952;1234;57572;-81
2024/02/28 17:12:56;;;;;;;45.00;25.90;;;;;;;6.21;100.00;100832.55;184998;1234;44311;-82
2024/02/28 17:16:58;;;;;;;40.90;23.00;;;;;;;6.20;100.00;100838.64;183453;1237;44035;-83
2024/02/28 17:21:03;;;;;;;39.90;23.40;;;;;;;6.13;100.00;100837.22;183546;1235;44622;-83
2024/02/28 17:25:05;;;;;;;39.60;22.60;;;;;;;6.12;100.00;100841.15;183798;1238;45859;-83
2024/02/28 17:29:07;;;;;;;45.70;24.30;;;;;;;6.12;100.00;100849.62;184148;1238;59441;-84
2024/02/28 17:33:09;;;;;;;41.10;23.10;;;;;;;6.09;100.00;100853.82;184152;1234;45978;-84
2024/02/28 17:37:11;;;;;;;40.40;24.90;;;;;;;6.11;100.00;100856.86;184253;1235;43939;-82
2024/02/28 17:41:13;;;;;;;39.10;26.40;;;;;;;6.14;100.00;100858.85;183996;1235;46489;-82
2024/02/28 17:45:14;;;;;;;36.30;23.80;;;;;;;6.18;100.00;100859.88;183114;1236;44058;-81
2024/02/28 17:49:18;;;;;;;41.00;24.80;;;;;;;6.15;100.00;100866.73;182823;1235;59167;-82
2024/02/28 17:53:20;;;;;;;40.90;26.60;;;;;;;6.16;100.00;100867.17;183302;1235;46082;-82
2024/02/28 17:57:22;;;;;;;39.70;23.60;;;;;;;6.11;100.00;100869.40;183245;1238;46431;-82
2024/02/28 18:01:24;;;;;;;31.80;22.80;;;;;;;6.12;100.00;100869.49;183791;1235;44037;-83
2024/02/28 18:05:26;;;;;;;38.40;25.30;;;;;;;6.08;100.00;100874.98;182702;1235;46098;-82
2024/02/28 18:09:28;;;;;;;34.20;21.30;;;;;;;6.07;100.00;100876.83;183376;1234;59298;-84